Gimli, Canada
Current Conditions -  °F | °C
As of 6:00 PM on Thursday 27 Nov 2014 (Local Time) from CYWG Reporting Station
Broken Clouds Broken Clouds  
Wind Chill: -15°   Ceiling: 25000
Heat Index:   Visibility: 15mi
Dew Point: -4°   Wind: 14mph
Humidity: 72%   Direction: 170°S
Pressure: 30.23"   Gusts: 21mph
Location:  50.64°N, 96.99°W
Report Text: CYWG 280000Z 17012G18KT 15SM SCT130 BKN250 M16/M20 A3023 RMK AS4CS2 SLP265
Loading
Personal Weather Stations






























Interactive Weather Map New forecast layout! Learn more

10-Day Weather Forecast

Advertisements
Track Severe Weather on mobile